sensor_id;sensor_type;location;lat;lon;timestamp;temperature;humidity
9662;DHT22;24982;52.344;12.990;2023-07-31T00:01:08;18.70;99.90
9662;DHT22;24982;52.344;12.990;2023-07-31T00:04:10;18.70;99.90
9662;DHT22;24982;52.344;12.990;2023-07-31T00:07:12;18.60;99.90
9662;DHT22;24982;52.344;12.990;2023-07-31T00:10:14;18.70;99.90
9662;DHT22;24982;52.344;12.990;2023-07-31T00:13:16;18.60;99.90
9662;DHT22;24982;52.344;12.990;2023-07-31T00:16:20;18.60;99.90
9662;DHT22;24982;52.344;12.990;2023-07-31T00:19:22;18.70;99.90
9662;DHT22;24982;52.344;12.990;2023-07-31T00:22:24;18.60;99.90
9662;DHT22;24982;52.344;12.990;2023-07-31T00:25:26;18.60;99.90
9662;DHT22;24982;52.344;12.990;2023-07-31T00:28:28;18.60;99.90
9662;DHT22;24982;52.344;12.990;2023-07-31T00:31:31;18.60;99.90
9662;DHT22;24982;52.344;12.990;2023-07-31T00:34:33;18.60;99.90
9662;DHT22;24982;52.344;12.990;2023-07-31T00:37:37;18.60;99.90
9662;DHT22;24982;52.344;12.990;2023-07-31T00:40:39;18.30;99.90
9662;DHT22;24982;52.344;12.990;2023-07-31T00:43:41;18.30;99.90
9662;DHT22;24982;52.344;12.990;2023-07-31T00:46:44;18.40;99.90
9662;DHT22;24982;52.344;12.990;2023-07-31T00:49:46;18.40;99.90
9662;DHT22;24982;52.344;12.990;2023-07-31T00:52:49;18.30;99.90
9662;DHT22;24982;52.344;12.990;2023-07-31T00:55:52;18.30;99.90
9662;DHT22;24982;52.344;12.990;2023-07-31T00:58:55;18.40;99.90
9662;DHT22;24982;52.344;12.990;2023-07-31T01:01:58;18.30;99.90
9662;DHT22;24982;52.344;12.990;2023-07-31T01:05:01;18.40;99.90
9662;DHT22;24982;52.344;12.990;2023-07-31T01:08:08;18.30;99.90
9662;DHT22;24982;52.344;12.990;2023-07-31T01:11:17;18.30;99.90
9662;DHT22;24982;52.344;12.990;2023-07-31T01:14:21;18.30;99.90
9662;DHT22;24982;52.344;12.990;2023-07-31T01:17:24;18.30;99.90
9662;DHT22;24982;52.344;12.990;2023-07-31T01:20:27;18.30;99.90
9662;DHT22;24982;52.344;12.990;2023-07-31T01:23:51;18.30;99.90
9662;DHT22;24982;52.344;12.990;2023-07-31T01:27:06;18.40;99.90
9662;DHT22;24982;52.344;12.990;2023-07-31T01:30:11;18.40;99.90
9662;DHT22;24982;52.344;12.990;2023-07-31T01:33:17;18.30;99.90
9662;DHT22;24982;52.344;12.990;2023-07-31T01:36:20;18.30;99.90
9662;DHT22;24982;52.344;12.990;2023-07-31T01:39:22;18.40;99.90
9662;DHT22;24982;52.344;12.990;2023-07-31T01:42:25;18.30;99.90
9662;DHT22;24982;52.344;12.990;2023-07-31T01:45:27;18.30;99.90
9662;DHT22;24982;52.344;12.990;2023-07-31T01:48:29;18.00;99.90
9662;DHT22;24982;52.344;12.990;2023-07-31T01:51:36;18.30;99.90
9662;DHT22;24982;52.344;12.990;2023-07-31T01:54:38;18.30;99.90
9662;DHT22;24982;52.344;12.990;2023-07-31T01:57:41;18.40;99.90
9662;DHT22;24982;52.344;12.990;2023-07-31T02:00:43;18.30;99.90
9662;DHT22;24982;52.344;12.990;2023-07-31T02:03:45;18.30;99.90
9662;DHT22;24982;52.344;12.990;2023-07-31T02:06:49;18.10;99.90
9662;DHT22;24982;52.344;12.990;2023-07-31T02:09:51;18.30;99.90
9662;DHT22;24982;52.344;12.990;2023-07-31T02:12:56;18.20;99.90
9662;DHT22;24982;52.344;12.990;2023-07-31T02:15:58;18.30;99.90
9662;DHT22;24982;52.344;12.990;2023-07-31T02:19:00;18.10;99.90
9662;DHT22;24982;52.344;12.990;2023-07-31T02:22:02;18.40;99.90
9662;DHT22;24982;52.344;12.990;2023-07-31T02:25:04;18.40;99.90
9662;DHT22;24982;52.344;12.990;2023-07-31T02:28:08;18.40;99.90
9662;DHT22;24982;52.344;12.990;2023-07-31T02:31:10;18.40;99.90
9662;DHT22;24982;52.344;12.990;2023-07-31T02:34:12;18.40;99.90
9662;DHT22;24982;52.344;12.990;2023-07-31T02:37:14;18.20;99.90
9662;DHT22;24982;52.344;12.990;2023-07-31T02:40:16;18.00;99.90
9662;DHT22;24982;52.344;12.990;2023-07-31T02:43:19;18.10;99.90
9662;DHT22;24982;52.344;12.990;2023-07-31T02:46:21;18.00;99.90
9662;DHT22;24982;52.344;12.990;2023-07-31T02:49:25;18.00;99.90
9662;DHT22;24982;52.344;12.990;2023-07-31T02:52:27;18.00;99.90
9662;DHT22;24982;52.344;12.990;2023-07-31T02:55:29;18.00;99.90
9662;DHT22;24982;52.344;12.990;2023-07-31T02:58:33;18.00;99.90
9662;DHT22;24982;52.344;12.990;2023-07-31T03:01:35;17.90;99.90
9662;DHT22;24982;52.344;12.990;2023-07-31T03:04:37;17.90;99.90
9662;DHT22;24982;52.344;12.990;2023-07-31T03:07:39;17.90;99.90
9662;DHT22;24982;52.344;12.990;2023-07-31T03:10:41;17.80;99.90
9662;DHT22;24982;52.344;12.990;2023-07-31T03:13:44;17.90;99.90
9662;DHT22;24982;52.344;12.990;2023-07-31T03:16:46;17.90;99.90
9662;DHT22;24982;52.344;12.990;2023-07-31T03:19:49;17.80;99.90
9662;DHT22;24982;52.344;12.990;2023-07-31T03:22:51;17.80;99.90
9662;DHT22;24982;52.344;12.990;2023-07-31T03:25:56;17.80;99.90
9662;DHT22;24982;52.344;12.990;2023-07-31T03:29:03;17.70;99.90
9662;DHT22;24982;52.344;12.990;2023-07-31T03:32:06;17.70;99.90
9662;DHT22;24982;52.344;12.990;2023-07-31T03:35:08;17.80;99.90
9662;DHT22;24982;52.344;12.990;2023-07-31T03:38:10;18.00;99.90
9662;DHT22;24982;52.344;12.990;2023-07-31T03:41:12;17.80;99.90
9662;DHT22;24982;52.344;12.990;2023-07-31T03:44:15;17.80;99.90
9662;DHT22;24982;52.344;12.990;2023-07-31T03:47:17;17.80;99.90
9662;DHT22;24982;52.344;12.990;2023-07-31T03:50:19;17.80;99.90
9662;DHT22;24982;52.344;12.990;2023-07-31T03:53:21;17.70;99.90
9662;DHT22;24982;52.344;12.990;2023-07-31T03:56:23;17.70;99.90
9662;DHT22;24982;52.344;12.990;2023-07-31T03:59:26;17.70;99.90
9662;DHT22;24982;52.344;12.990;2023-07-31T04:02:28;17.60;99.90
9662;DHT22;24982;52.344;12.990;2023-07-31T04:05:31;17.70;99.90
9662;DHT22;24982;52.344;12.990;2023-07-31T04:08:33;17.70;99.90
9662;DHT22;24982;52.344;12.990;2023-07-31T04:11:35;17.70;99.90
9662;DHT22;24982;52.344;12.990;2023-07-31T04:14:38;17.90;99.90
9662;DHT22;24982;52.344;12.990;2023-07-31T04:17:40;18.00;99.90
9662;DHT22;24982;52.344;12.990;2023-07-31T04:20:42;17.80;99.90
9662;DHT22;24982;52.344;12.990;2023-07-31T04:23:44;17.60;99.90
9662;DHT22;24982;52.344;12.990;2023-07-31T04:26:46;17.60;99.90
9662;DHT22;24982;52.344;12.990;2023-07-31T04:29:49;17.60;99.90
9662;DHT22;24982;52.344;12.990;2023-07-31T04:32:51;17.60;99.90
9662;DHT22;24982;52.344;12.990;2023-07-31T04:35:53;17.60;99.90
9662;DHT22;24982;52.344;12.990;2023-07-31T04:38:56;17.80;99.90
9662;DHT22;24982;52.344;12.990;2023-07-31T04:41:57;17.90;99.90
9662;DHT22;24982;52.344;12.990;2023-07-31T04:45:01;17.90;99.90
9662;DHT22;24982;52.344;12.990;2023-07-31T04:48:03;17.80;99.90
9662;DHT22;24982;52.344;12.990;2023-07-31T04:51:05;17.90;99.90
9662;DHT22;24982;52.344;12.990;2023-07-31T04:54:07;17.80;99.90
9662;DHT22;24982;52.344;12.990;2023-07-31T04:57:09;17.70;99.90
9662;DHT22;24982;52.344;12.990;2023-07-31T05:00:13;17.60;99.90
9662;DHT22;24982;52.344;12.990;2023-07-31T05:03:15;17.60;99.90
9662;DHT22;24982;52.344;12.990;2023-07-31T05:06:17;17.70;99.90
9662;DHT22;24982;52.344;12.990;2023-07-31T05:09:21;17.80;99.90
9662;DHT22;24982;52.344;12.990;2023-07-31T05:12:23;17.90;99.90
9662;DHT22;24982;52.344;12.990;2023-07-31T05:15:26;18.00;99.90
9662;DHT22;24982;52.344;12.990;2023-07-31T05:18:28;17.80;99.90
9662;DHT22;24982;52.344;12.990;2023-07-31T05:21:30;17.90;99.90
9662;DHT22;24982;52.344;12.990;2023-07-31T05:24:32;18.10;99.90
9662;DHT22;24982;52.344;12.990;2023-07-31T05:27:34;18.10;99.90
9662;DHT22;24982;52.344;12.990;2023-07-31T05:30:37;18.00;99.90
9662;DHT22;24982;52.344;12.990;2023-07-31T05:33:39;18.00;99.90
9662;DHT22;24982;52.344;12.990;2023-07-31T05:36:41;18.00;99.90
9662;DHT22;24982;52.344;12.990;2023-07-31T05:39:43;17.90;99.90
9662;DHT22;24982;52.344;12.990;2023-07-31T05:42:45;17.90;99.90
9662;DHT22;24982;52.344;12.990;2023-07-31T05:45:48;17.90;99.90
9662;DHT22;24982;52.344;12.990;2023-07-31T05:48:50;17.90;99.90
9662;DHT22;24982;52.344;12.990;2023-07-31T05:51:52;17.90;99.90
9662;DHT22;24982;52.344;12.990;2023-07-31T05:54:54;17.80;99.90
9662;DHT22;24982;52.344;12.990;2023-07-31T05:57:56;17.80;99.90
9662;DHT22;24982;52.344;12.990;2023-07-31T06:00:59;17.80;99.90
9662;DHT22;24982;52.344;12.990;2023-07-31T06:04:01;17.90;99.90
9662;DHT22;24982;52.344;12.990;2023-07-31T06:07:04;17.90;99.90
9662;DHT22;24982;52.344;12.990;2023-07-31T06:10:07;17.90;99.90
9662;DHT22;24982;52.344;12.990;2023-07-31T06:13:10;18.00;99.90
9662;DHT22;24982;52.344;12.990;2023-07-31T06:16:13;17.90;99.90
9662;DHT22;24982;52.344;12.990;2023-07-31T06:19:15;18.00;99.90
9662;DHT22;24982;52.344;12.990;2023-07-31T06:22:17;17.90;99.90
9662;DHT22;24982;52.344;12.990;2023-07-31T06:25:19;17.90;99.90
9662;DHT22;24982;52.344;12.990;2023-07-31T06:28:23;18.00;99.90
9662;DHT22;24982;52.344;12.990;2023-07-31T06:31:30;18.00;99.90
9662;DHT22;24982;52.344;12.990;2023-07-31T06:34:32;18.00;99.90
9662;DHT22;24982;52.344;12.990;2023-07-31T06:37:34;18.10;99.90
9662;DHT22;24982;52.344;12.990;2023-07-31T06:40:35;18.00;99.90
9662;DHT22;24982;52.344;12.990;2023-07-31T06:43:37;18.10;99.90
9662;DHT22;24982;52.344;12.990;2023-07-31T06:46:41;18.10;99.90
9662;DHT22;24982;52.344;12.990;2023-07-31T06:49:44;18.10;99.90
9662;DHT22;24982;52.344;12.990;2023-07-31T06:52:46;18.10;99.90
9662;DHT22;24982;52.344;12.990;2023-07-31T06:55:47;18.10;99.90
9662;DHT22;24982;52.344;12.990;2023-07-31T06:58:52;18.10;99.90
9662;DHT22;24982;52.344;12.990;2023-07-31T07:01:55;18.20;99.90
9662;DHT22;24982;52.344;12.990;2023-07-31T07:04:57;18.10;99.90
9662;DHT22;24982;52.344;12.990;2023-07-31T07:07:59;18.00;99.90
9662;DHT22;24982;52.344;12.990;2023-07-31T07:11:01;18.10;99.90
9662;DHT22;24982;52.344;12.990;2023-07-31T07:14:03;18.10;99.90
9662;DHT22;24982;52.344;12.990;2023-07-31T07:17:07;18.00;99.90
9662;DHT22;24982;52.344;12.990;2023-07-31T07:20:09;17.90;99.90
9662;DHT22;24982;52.344;12.990;2023-07-31T07:23:11;18.00;99.90
9662;DHT22;24982;52.344;12.990;2023-07-31T07:26:13;18.00;99.90
9662;DHT22;24982;52.344;12.990;2023-07-31T07:29:15;18.00;99.90
9662;DHT22;24982;52.344;12.990;2023-07-31T07:32:18;18.00;99.90
9662;DHT22;24982;52.344;12.990;2023-07-31T07:35:20;18.00;99.90
9662;DHT22;24982;52.344;12.990;2023-07-31T07:38:22;18.10;99.90
9662;DHT22;24982;52.344;12.990;2023-07-31T07:41:24;18.10;99.90
9662;DHT22;24982;52.344;12.990;2023-07-31T07:44:26;18.10;99.90
9662;DHT22;24982;52.344;12.990;2023-07-31T07:47:30;18.00;99.90
9662;DHT22;24982;52.344;12.990;2023-07-31T07:50:32;18.10;99.90
9662;DHT22;24982;52.344;12.990;2023-07-31T07:53:34;18.10;99.90
9662;DHT22;24982;52.344;12.990;2023-07-31T07:56:35;18.00;99.90
9662;DHT22;24982;52.344;12.990;2023-07-31T07:59:37;17.90;99.90
9662;DHT22;24982;52.344;12.990;2023-07-31T08:02:41;18.00;99.90
9662;DHT22;24982;52.344;12.990;2023-07-31T08:05:44;18.20;99.90
9662;DHT22;24982;52.344;12.990;2023-07-31T08:08:46;18.30;99.90
9662;DHT22;24982;52.344;12.990;2023-07-31T08:11:48;18.20;99.90
9662;DHT22;24982;52.344;12.990;2023-07-31T08:14:50;18.30;99.90
9662;DHT22;24982;52.344;12.990;2023-07-31T08:17:54;18.30;99.90
9662;DHT22;24982;52.344;12.990;2023-07-31T08:20:56;18.30;99.90
9662;DHT22;24982;52.344;12.990;2023-07-31T08:23:57;18.30;99.90
9662;DHT22;24982;52.344;12.990;2023-07-31T08:26:59;18.30;99.90
9662;DHT22;24982;52.344;12.990;2023-07-31T08:30:02;18.30;99.90
9662;DHT22;24982;52.344;12.990;2023-07-31T08:33:05;18.30;99.90
9662;DHT22;24982;52.344;12.990;2023-07-31T08:36:07;18.30;99.90
9662;DHT22;24982;52.344;12.990;2023-07-31T08:39:09;18.20;99.90
9662;DHT22;24982;52.344;12.990;2023-07-31T08:42:12;18.20;99.90
9662;DHT22;24982;52.344;12.990;2023-07-31T08:45:15;18.20;99.90
9662;DHT22;24982;52.344;12.990;2023-07-31T08:48:20;18.20;99.90
9662;DHT22;24982;52.344;12.990;2023-07-31T08:51:22;18.20;99.90
9662;DHT22;24982;52.344;12.990;2023-07-31T08:54:24;18.20;99.90
9662;DHT22;24982;52.344;12.990;2023-07-31T08:57:30;18.30;99.90
9662;DHT22;24982;52.344;12.990;2023-07-31T09:00:33;18.40;99.90
9662;DHT22;24982;52.344;12.990;2023-07-31T09:03:37;18.40;99.90
9662;DHT22;24982;52.344;12.990;2023-07-31T09:06:41;18.30;99.90
9662;DHT22;24982;52.344;12.990;2023-07-31T09:09:46;18.40;99.90
9662;DHT22;24982;52.344;12.990;2023-07-31T09:12:49;18.50;99.90
9662;DHT22;24982;52.344;12.990;2023-07-31T09:15:51;18.60;99.90
9662;DHT22;24982;52.344;12.990;2023-07-31T09:18:55;18.50;99.90
9662;DHT22;24982;52.344;12.990;2023-07-31T09:21:58;18.50;99.90
9662;DHT22;24982;52.344;12.990;2023-07-31T09:25:14;18.60;99.90
9662;DHT22;24982;52.344;12.990;2023-07-31T09:28:16;18.50;99.90
9662;DHT22;24982;52.344;12.990;2023-07-31T09:31:32;18.40;99.90
9662;DHT22;24982;52.344;12.990;2023-07-31T09:34:38;18.70;99.90
9662;DHT22;24982;52.344;12.990;2023-07-31T09:37:40;18.70;99.90
9662;DHT22;24982;52.344;12.990;2023-07-31T09:40:43;18.80;99.90
9662;DHT22;24982;52.344;12.990;2023-07-31T09:43:53;18.60;99.90
9662;DHT22;24982;52.344;12.990;2023-07-31T09:46:55;18.70;99.90
9662;DHT22;24982;52.344;12.990;2023-07-31T09:49:58;18.60;99.90
9662;DHT22;24982;52.344;12.990;2023-07-31T09:53:00;18.50;99.90
9662;DHT22;24982;52.344;12.990;2023-07-31T09:56:02;18.40;99.90
9662;DHT22;24982;52.344;12.990;2023-07-31T09:59:05;18.50;99.90
9662;DHT22;24982;52.344;12.990;2023-07-31T10:02:08;18.60;99.90
9662;DHT22;24982;52.344;12.990;2023-07-31T10:05:13;18.60;99.90
9662;DHT22;24982;52.344;12.990;2023-07-31T10:08:18;18.70;99.90
9662;DHT22;24982;52.344;12.990;2023-07-31T10:11:22;18.70;99.90
9662;DHT22;24982;52.344;12.990;2023-07-31T10:14:26;18.60;99.90
9662;DHT22;24982;52.344;12.990;2023-07-31T10:17:30;18.60;99.90
9662;DHT22;24982;52.344;12.990;2023-07-31T10:20:34;18.80;99.90
9662;DHT22;24982;52.344;12.990;2023-07-31T10:23:37;19.00;99.90
9662;DHT22;24982;52.344;12.990;2023-07-31T10:26:41;19.20;99.90
9662;DHT22;24982;52.344;12.990;2023-07-31T10:29:45;19.40;99.90
9662;DHT22;24982;52.344;12.990;2023-07-31T10:32:50;19.70;99.90
9662;DHT22;24982;52.344;12.990;2023-07-31T10:36:12;19.70;99.90
9662;DHT22;24982;52.344;12.990;2023-07-31T10:39:33;20.10;99.90
9662;DHT22;24982;52.344;12.990;2023-07-31T10:42:37;19.90;99.90
9662;DHT22;24982;52.344;12.990;2023-07-31T10:45:42;20.20;99.90
9662;DHT22;24982;52.344;12.990;2023-07-31T10:48:44;20.60;99.90
9662;DHT22;24982;52.344;12.990;2023-07-31T10:51:48;20.40;99.90
9662;DHT22;24982;52.344;12.990;2023-07-31T10:54:50;20.40;99.90
9662;DHT22;24982;52.344;12.990;2023-07-31T10:57:52;20.40;99.90
9662;DHT22;24982;52.344;12.990;2023-07-31T11:00:56;20.40;99.90
9662;DHT22;24982;52.344;12.990;2023-07-31T11:03:58;20.30;99.90
9662;DHT22;24982;52.344;12.990;2023-07-31T11:07:03;20.40;99.90
9662;DHT22;24982;52.344;12.990;2023-07-31T11:10:09;20.20;99.90
9662;DHT22;24982;52.344;12.990;2023-07-31T11:13:11;20.10;99.90
9662;DHT22;24982;52.344;12.990;2023-07-31T11:16:13;19.80;99.90
9662;DHT22;24982;52.344;12.990;2023-07-31T11:19:21;20.20;99.90
9662;DHT22;24982;52.344;12.990;2023-07-31T11:22:24;20.30;99.90
9662;DHT22;24982;52.344;12.990;2023-07-31T11:25:26;20.20;99.90
9662;DHT22;24982;52.344;12.990;2023-07-31T11:28:32;20.10;99.90
9662;DHT22;24982;52.344;12.990;2023-07-31T11:31:42;20.20;99.90
9662;DHT22;24982;52.344;12.990;2023-07-31T11:34:51;20.10;99.90
9662;DHT22;24982;52.344;12.990;2023-07-31T11:37:55;20.10;99.90
9662;DHT22;24982;52.344;12.990;2023-07-31T11:40:58;20.10;99.90
9662;DHT22;24982;52.344;12.990;2023-07-31T11:44:00;20.10;99.90
9662;DHT22;24982;52.344;12.990;2023-07-31T11:47:03;20.10;99.90
9662;DHT22;24982;52.344;12.990;2023-07-31T11:50:11;19.80;99.90
9662;DHT22;24982;52.344;12.990;2023-07-31T11:53:15;19.90;99.90
9662;DHT22;24982;52.344;12.990;2023-07-31T11:56:20;20.00;99.90
9662;DHT22;24982;52.344;12.990;2023-07-31T11:59:22;20.00;99.90
9662;DHT22;24982;52.344;12.990;2023-07-31T12:02:25;19.90;99.90
9662;DHT22;24982;52.344;12.990;2023-07-31T12:05:27;19.80;99.90
9662;DHT22;24982;52.344;12.990;2023-07-31T12:08:31;19.80;99.90
9662;DHT22;24982;52.344;12.990;2023-07-31T12:11:42;20.00;99.90
9662;DHT22;24982;52.344;12.990;2023-07-31T12:14:44;20.20;99.90
9662;DHT22;24982;52.344;12.990;2023-07-31T12:17:47;20.20;99.90
9662;DHT22;24982;52.344;12.990;2023-07-31T12:20:54;20.30;99.90
9662;DHT22;24982;52.344;12.990;2023-07-31T12:23:58;20.10;99.90
9662;DHT22;24982;52.344;12.990;2023-07-31T12:26:59;20.10;99.90
9662;DHT22;24982;52.344;12.990;2023-07-31T12:30:01;20.20;99.90
9662;DHT22;24982;52.344;12.990;2023-07-31T12:33:04;20.40;99.90
9662;DHT22;24982;52.344;12.990;2023-07-31T12:36:08;20.40;99.90
9662;DHT22;24982;52.344;12.990;2023-07-31T12:39:12;20.60;99.90
9662;DHT22;24982;52.344;12.990;2023-07-31T12:42:17;20.60;99.90
9662;DHT22;24982;52.344;12.990;2023-07-31T12:45:19;20.60;99.90
9662;DHT22;24982;52.344;12.990;2023-07-31T12:48:21;20.60;99.90
9662;DHT22;24982;52.344;12.990;2023-07-31T12:51:24;20.50;99.90
9662;DHT22;24982;52.344;12.990;2023-07-31T12:54:27;20.50;99.90
9662;DHT22;24982;52.344;12.990;2023-07-31T12:57:29;20.90;99.90
9662;DHT22;24982;52.344;12.990;2023-07-31T13:00:32;20.60;99.90
9662;DHT22;24982;52.344;12.990;2023-07-31T13:03:34;20.70;99.90
9662;DHT22;24982;52.344;12.990;2023-07-31T13:06:36;20.80;99.90
9662;DHT22;24982;52.344;12.990;2023-07-31T13:09:39;20.80;99.90
9662;DHT22;24982;52.344;12.990;2023-07-31T13:12:41;20.80;99.90
9662;DHT22;24982;52.344;12.990;2023-07-31T13:15:43;20.70;99.90
9662;DHT22;24982;52.344;12.990;2023-07-31T13:18:45;20.90;99.90
9662;DHT22;24982;52.344;12.990;2023-07-31T13:21:47;20.90;99.90
9662;DHT22;24982;52.344;12.990;2023-07-31T13:24:53;21.10;99.90
9662;DHT22;24982;52.344;12.990;2023-07-31T13:27:55;21.10;99.90
9662;DHT22;24982;52.344;12.990;2023-07-31T13:30:57;21.20;99.90
9662;DHT22;24982;52.344;12.990;2023-07-31T13:33:59;21.10;99.90
9662;DHT22;24982;52.344;12.990;2023-07-31T13:37:01;21.00;99.90
9662;DHT22;24982;52.344;12.990;2023-07-31T13:40:05;21.00;99.90
9662;DHT22;24982;52.344;12.990;2023-07-31T13:43:07;21.00;99.90
9662;DHT22;24982;52.344;12.990;2023-07-31T13:46:09;21.10;99.90
9662;DHT22;24982;52.344;12.990;2023-07-31T13:49:11;21.10;99.90
9662;DHT22;24982;52.344;12.990;2023-07-31T13:52:14;21.00;99.90
9662;DHT22;24982;52.344;12.990;2023-07-31T13:55:17;21.00;99.90
9662;DHT22;24982;52.344;12.990;2023-07-31T13:58:20;21.00;99.90
9662;DHT22;24982;52.344;12.990;2023-07-31T14:01:22;20.80;99.90
9662;DHT22;24982;52.344;12.990;2023-07-31T14:04:24;20.60;99.90
9662;DHT22;24982;52.344;12.990;2023-07-31T14:07:26;20.80;99.90
9662;DHT22;24982;52.344;12.990;2023-07-31T14:10:30;20.90;99.90
9662;DHT22;24982;52.344;12.990;2023-07-31T14:13:32;21.00;99.90
9662;DHT22;24982;52.344;12.990;2023-07-31T14:16:34;20.90;99.90
9662;DHT22;24982;52.344;12.990;2023-07-31T14:19:36;21.00;99.90
9662;DHT22;24982;52.344;12.990;2023-07-31T14:22:38;21.00;99.90
9662;DHT22;24982;52.344;12.990;2023-07-31T14:25:41;20.90;99.90
9662;DHT22;24982;52.344;12.990;2023-07-31T14:28:43;20.80;99.90
9662;DHT22;24982;52.344;12.990;2023-07-31T14:31:45;20.80;99.90
9662;DHT22;24982;52.344;12.990;2023-07-31T14:34:47;20.70;99.90
9662;DHT22;24982;52.344;12.990;2023-07-31T14:37:49;20.80;99.90
9662;DHT22;24982;52.344;12.990;2023-07-31T14:40:52;20.80;99.90
9662;DHT22;24982;52.344;12.990;2023-07-31T14:43:54;20.80;99.90
9662;DHT22;24982;52.344;12.990;2023-07-31T14:46:56;21.00;99.90
9662;DHT22;24982;52.344;12.990;2023-07-31T14:49:58;21.00;99.90
9662;DHT22;24982;52.344;12.990;2023-07-31T14:53:00;20.70;99.90
9662;DHT22;24982;52.344;12.990;2023-07-31T14:56:04;20.80;99.90
9662;DHT22;24982;52.344;12.990;2023-07-31T14:59:06;20.90;99.90
9662;DHT22;24982;52.344;12.990;2023-07-31T15:02:10;20.80;99.90
9662;DHT22;24982;52.344;12.990;2023-07-31T15:05:12;20.80;99.90
9662;DHT22;24982;52.344;12.990;2023-07-31T15:08:14;20.70;99.90
9662;DHT22;24982;52.344;12.990;2023-07-31T15:11:18;20.40;99.90
9662;DHT22;24982;52.344;12.990;2023-07-31T15:14:20;20.30;99.90
9662;DHT22;24982;52.344;12.990;2023-07-31T15:17:22;20.20;99.90
9662;DHT22;24982;52.344;12.990;2023-07-31T15:20:24;20.00;99.90
9662;DHT22;24982;52.344;12.990;2023-07-31T15:23:26;20.50;99.90
9662;DHT22;24982;52.344;12.990;2023-07-31T15:26:30;20.40;99.90
9662;DHT22;24982;52.344;12.990;2023-07-31T15:29:32;20.40;99.90
9662;DHT22;24982;52.344;12.990;2023-07-31T15:32:37;20.60;99.90
9662;DHT22;24982;52.344;12.990;2023-07-31T15:35:40;20.60;99.90
9662;DHT22;24982;52.344;12.990;2023-07-31T15:38:43;20.80;99.90
9662;DHT22;24982;52.344;12.990;2023-07-31T15:41:48;20.80;99.90
9662;DHT22;24982;52.344;12.990;2023-07-31T15:44:50;21.10;99.90
9662;DHT22;24982;52.344;12.990;2023-07-31T15:47:52;21.10;99.90
9662;DHT22;24982;52.344;12.990;2023-07-31T15:50:54;21.10;99.90
9662;DHT22;24982;52.344;12.990;2023-07-31T15:53:56;21.10;99.90
9662;DHT22;24982;52.344;12.990;2023-07-31T15:56:59;21.20;99.90
9662;DHT22;24982;52.344;12.990;2023-07-31T16:00:01;21.20;99.90
9662;DHT22;24982;52.344;12.990;2023-07-31T16:03:08;21.10;99.90
9662;DHT22;24982;52.344;12.990;2023-07-31T16:06:10;21.10;99.90
9662;DHT22;24982;52.344;12.990;2023-07-31T16:09:12;21.00;99.90
9662;DHT22;24982;52.344;12.990;2023-07-31T16:12:15;21.00;99.90
9662;DHT22;24982;52.344;12.990;2023-07-31T16:15:17;20.90;99.90
9662;DHT22;24982;52.344;12.990;2023-07-31T16:18:19;20.90;99.90
9662;DHT22;24982;52.344;12.990;2023-07-31T16:21:21;21.20;99.90
9662;DHT22;24982;52.344;12.990;2023-07-31T16:24:23;21.00;99.90
9662;DHT22;24982;52.344;12.990;2023-07-31T16:27:26;20.90;99.90
9662;DHT22;24982;52.344;12.990;2023-07-31T16:30:28;21.00;99.90
9662;DHT22;24982;52.344;12.990;2023-07-31T16:33:31;21.00;99.90
9662;DHT22;24982;52.344;12.990;2023-07-31T16:36:33;21.00;99.90
9662;DHT22;24982;52.344;12.990;2023-07-31T16:39:35;21.10;99.90
9662;DHT22;24982;52.344;12.990;2023-07-31T16:42:39;21.10;99.90
9662;DHT22;24982;52.344;12.990;2023-07-31T16:45:41;21.00;99.90
9662;DHT22;24982;52.344;12.990;2023-07-31T16:48:44;21.00;99.90
9662;DHT22;24982;52.344;12.990;2023-07-31T16:51:47;21.00;99.90
9662;DHT22;24982;52.344;12.990;2023-07-31T16:54:49;21.00;99.90
9662;DHT22;24982;52.344;12.990;2023-07-31T16:57:53;21.00;99.90
9662;DHT22;24982;52.344;12.990;2023-07-31T17:00:57;21.00;99.90
9662;DHT22;24982;52.344;12.990;2023-07-31T17:04:00;20.90;99.90
9662;DHT22;24982;52.344;12.990;2023-07-31T17:07:02;20.90;99.90
9662;DHT22;24982;52.344;12.990;2023-07-31T17:10:05;20.80;99.90
9662;DHT22;24982;52.344;12.990;2023-07-31T17:13:08;20.80;99.90
9662;DHT22;24982;52.344;12.990;2023-07-31T17:16:10;20.70;99.90
9662;DHT22;24982;52.344;12.990;2023-07-31T17:19:12;20.80;99.90
9662;DHT22;24982;52.344;12.990;2023-07-31T17:22:15;20.80;99.90
9662;DHT22;24982;52.344;12.990;2023-07-31T17:25:17;20.90;99.90
9662;DHT22;24982;52.344;12.990;2023-07-31T17:28:21;20.70;99.90
9662;DHT22;24982;52.344;12.990;2023-07-31T17:31:23;20.80;99.90
9662;DHT22;24982;52.344;12.990;2023-07-31T17:34:26;20.80;99.90
9662;DHT22;24982;52.344;12.990;2023-07-31T17:37:28;20.80;99.90
9662;DHT22;24982;52.344;12.990;2023-07-31T17:40:30;20.70;99.90
9662;DHT22;24982;52.344;12.990;2023-07-31T17:43:34;20.70;99.90
9662;DHT22;24982;52.344;12.990;2023-07-31T17:46:36;20.60;99.90
9662;DHT22;24982;52.344;12.990;2023-07-31T17:49:38;20.70;99.90
9662;DHT22;24982;52.344;12.990;2023-07-31T17:52:40;20.70;99.90
9662;DHT22;24982;52.344;12.990;2023-07-31T17:55:42;20.70;99.90
9662;DHT22;24982;52.344;12.990;2023-07-31T17:58:45;20.70;99.90
9662;DHT22;24982;52.344;12.990;2023-07-31T18:01:47;20.70;99.90
9662;DHT22;24982;52.344;12.990;2023-07-31T18:04:49;20.60;99.90
9662;DHT22;24982;52.344;12.990;2023-07-31T18:07:52;20.50;99.90
9662;DHT22;24982;52.344;12.990;2023-07-31T18:15:19;20.40;99.90
9662;DHT22;24982;52.344;12.990;2023-07-31T18:22:44;20.50;99.90
9662;DHT22;24982;52.344;12.990;2023-07-31T18:25:47;20.50;99.90
9662;DHT22;24982;52.344;12.990;2023-07-31T18:28:49;20.40;99.90
9662;DHT22;24982;52.344;12.990;2023-07-31T18:31:52;20.40;99.90
9662;DHT22;24982;52.344;12.990;2023-07-31T18:34:54;20.50;99.90
9662;DHT22;24982;52.344;12.990;2023-07-31T18:37:56;20.50;99.90
9662;DHT22;24982;52.344;12.990;2023-07-31T18:40:59;20.40;99.90
9662;DHT22;24982;52.344;12.990;2023-07-31T18:44:01;20.40;99.90
9662;DHT22;24982;52.344;12.990;2023-07-31T18:47:04;20.40;99.90
9662;DHT22;24982;52.344;12.990;2023-07-31T18:50:07;20.50;99.90
9662;DHT22;24982;52.344;12.990;2023-07-31T18:53:09;20.50;99.90
9662;DHT22;24982;52.344;12.990;2023-07-31T18:56:12;20.40;99.90
9662;DHT22;24982;52.344;12.990;2023-07-31T18:59:14;20.30;99.90
9662;DHT22;24982;52.344;12.990;2023-07-31T19:02:18;20.30;99.90
9662;DHT22;24982;52.344;12.990;2023-07-31T19:05:20;20.30;99.90
9662;DHT22;24982;52.344;12.990;2023-07-31T19:08:22;20.30;99.90
9662;DHT22;24982;52.344;12.990;2023-07-31T19:11:24;20.10;99.90
9662;DHT22;24982;52.344;12.990;2023-07-31T19:14:26;20.20;99.90
9662;DHT22;24982;52.344;12.990;2023-07-31T19:17:29;20.30;99.90
9662;DHT22;24982;52.344;12.990;2023-07-31T19:20:32;20.30;99.90
9662;DHT22;24982;52.344;12.990;2023-07-31T19:23:33;20.20;99.90